Time;durP1;ratioP1;P1;durP2;ratioP2;P2;SDS_P1;SDS_P2;PMS_P1;PMS_P2;Temp;Humidity;BMP_temperature;BMP_pressure;BME280_temperature;BME280_humidity;BME280_pressure;Samples;Min_cycle;Max_cycle;Signal;HPM_P1;HPM_P2
2021/10/04 00:00:01;;;;;;;;;;;;;;;9.30;83.17;101800.56;1975812;73;20145;-58
2021/10/04 00:02:31;;;;;;;;;;;;;;;9.31;83.31;101800.11;1974374;72;20140;-59
2021/10/04 00:04:59;;;;;;;;;;;;;;;9.31;83.21;101798.80;1975785;73;20115;-59
2021/10/04 00:07:26;;;;;;;;;;;;;;;9.28;83.59;101795.33;1975725;73;20174;-59
2021/10/04 00:09:55;;;;;;;;;;;;;;;9.26;83.66;101794.49;1975741;73;20144;-59
2021/10/04 00:12:22;;;;;;;;;;;;;;;9.26;83.58;101793.63;1975728;73;20110;-59
2021/10/04 00:14:50;;;;;;;;;;;;;;;9.24;83.45;101794.97;1975769;73;20116;-59
2021/10/04 00:17:18;;;;;;;;;;;;;;;9.24;83.59;101798.02;1975776;73;20196;-58
2021/10/04 00:19:46;;;;;;;;;;;;;;;9.24;83.59;101794.97;1975680;73;20099;-59
2021/10/04 00:22:14;;;;;;;;;;;;;;;9.23;83.54;101796.30;1975767;73;20110;-59
2021/10/04 00:24:42;;;;;;;;;;;;;;;9.22;83.86;101795.44;1975719;73;20103;-59
2021/10/04 00:27:09;;;;;;;;;;;;;;;9.21;83.64;101800.27;1985110;72;20117;-59
2021/10/04 00:29:37;;;;;;;;;;;;;;;9.20;83.83;101805.11;2000050;72;20113;-59
2021/10/04 00:32:06;;;;;;;;;;;;;;;9.20;83.88;101809.06;2000075;72;20110;-62
2021/10/04 00:34:33;;;;;;;;;;;;;;;9.19;84.44;101802.05;2000045;72;20140;-61
2021/10/04 00:37:01;;;;;;;;;;;;;;;9.18;84.06;101802.07;2000039;72;20110;-61
2021/10/04 00:39:30;;;;;;;;;;;;;;;9.16;84.03;101802.09;1999978;72;20207;-61
2021/10/04 00:41:58;;;;;;;;;;;;;;;9.15;84.08;101805.63;2000013;72;20211;-61
2021/10/04 00:44:26;;;;;;;;;;;;;;;9.14;83.90;101801.70;2000053;72;20110;-61
2021/10/04 00:46:54;;;;;;;;;;;;;;;9.13;84.03;101803.47;1999996;72;20106;-61
2021/10/04 00:49:22;;;;;;;;;;;;;;;9.12;84.46;101805.67;2000054;72;20143;-62
2021/10/04 00:51:50;;;;;;;;;;;;;;;9.12;84.12;101812.69;2000020;72;20101;-61
2021/10/04 00:54:17;;;;;;;;;;;;;;;9.09;83.96;101805.70;2000016;72;20602;-61
2021/10/04 00:56:45;;;;;;;;;;;;;;;9.08;83.87;101814.04;1999953;72;20117;-62
2021/10/04 00:59:13;;;;;;;;;;;;;;;9.07;83.94;101808.80;1999940;72;20109;-62
2021/10/04 01:01:41;;;;;;;;;;;;;;;9.05;83.87;101808.83;2000015;72;20110;-61
2021/10/04 01:04:09;;;;;;;;;;;;;;;9.03;84.00;101815.87;2000053;72;20183;-61
2021/10/04 01:06:36;;;;;;;;;;;;;;;9.03;83.96;101817.63;2000038;72;20113;-61
2021/10/04 01:09:04;;;;;;;;;;;;;;;9.00;83.91;101809.37;2000026;72;20109;-62
2021/10/04 01:11:32;;;;;;;;;;;;;;;8.99;83.84;101810.24;2000009;72;20184;-61
2021/10/04 01:14:00;;;;;;;;;;;;;;;9.00;83.79;101815.05;1999909;72;20114;-61
2021/10/04 01:16:28;;;;;;;;;;;;;;;8.98;83.75;101809.84;2000054;72;20140;-61
2021/10/04 01:18:56;;;;;;;;;;;;;;;8.97;83.74;101811.17;1999980;72;20113;-61
2021/10/04 01:21:24;;;;;;;;;;;;;;;8.96;83.88;101808.11;2000036;72;20160;-61
2021/10/04 01:23:52;;;;;;;;;;;;;;;8.95;83.97;101809.02;1999988;72;20106;-62
2021/10/04 01:26:20;;;;;;;;;;;;;;;8.93;83.97;101804.20;1999976;72;20160;-62
2021/10/04 01:28:48;;;;;;;;;;;;;;;8.91;84.10;101800.31;1988157;72;20332;-61
2021/10/04 01:31:21;;;;;;;;;;;;;;;8.91;84.03;101805.98;1985904;72;20145;-62
2021/10/04 01:33:45;;;;;;;;;;;;;;;8.88;84.03;101802.97;1985280;72;20140;-61
2021/10/04 01:36:13;;;;;;;;;;;;;;;8.87;84.18;101802.12;1985899;72;20114;-61
2021/10/04 01:38:40;;;;;;;;;;;;;;;8.86;84.49;101802.14;1985940;72;20145;-62
2021/10/04 01:41:08;;;;;;;;;;;;;;;8.85;84.37;101814.83;1985815;72;20114;-61
2021/10/04 01:43:36;;;;;;;;;;;;;;;8.83;84.17;101806.11;1985911;72;20106;-61
2021/10/04 01:46:04;;;;;;;;;;;;;;;8.81;84.07;101807.44;1985884;72;20114;-61
2021/10/04 01:48:32;;;;;;;;;;;;;;;8.82;84.09;101813.13;1985897;72;20110;-61
2021/10/04 01:51:00;;;;;;;;;;;;;;;8.82;84.48;101810.95;1985867;72;20153;-62
2021/10/04 01:53:28;;;;;;;;;;;;;;;8.79;84.27;101807.05;1985851;72;20111;-61
2021/10/04 01:55:56;;;;;;;;;;;;;;;8.77;84.11;101804.44;1985902;72;20114;-61
2021/10/04 01:58:24;;;;;;;;;;;;;;;8.76;84.11;101807.98;1985963;72;20140;-61
2021/10/04 02:00:52;;;;;;;;;;;;;;;8.74;84.06;101799.22;1985884;72;20140;-61
2021/10/04 02:03:20;;;;;;;;;;;;;;;8.73;84.13;101802.75;1985880;72;20157;-61
2021/10/04 02:05:48;;;;;;;;;;;;;;;8.71;83.99;101801.91;1985884;72;20118;-60
2021/10/04 02:08:16;;;;;;;;;;;;;;;8.71;84.09;101805.85;1985728;72;20098;-61
2021/10/04 02:10:44;;;;;;;;;;;;;;;8.71;83.99;101809.79;1985976;72;20110;-61
2021/10/04 02:13:12;;;;;;;;;;;;;;;8.72;84.25;101810.65;1985874;72;20136;-61
2021/10/04 02:15:41;;;;;;;;;;;;;;;8.70;83.98;101814.61;1985858;72;20149;-61
2021/10/04 02:18:10;;;;;;;;;;;;;;;8.71;84.00;101808.94;1985843;72;20165;-61
2021/10/04 02:20:42;;;;;;;;;;;;;;;8.69;84.17;101810.27;1985753;72;20106;-61
2021/10/04 02:23:11;;;;;;;;;;;;;;;8.68;84.13;101815.08;1985859;72;20118;-61
2021/10/04 02:25:46;;;;;;;;;;;;;;;8.67;84.19;101814.22;1985927;72;20161;-61
2021/10/04 02:28:16;;;;;;;;;;;;;;;8.68;84.70;101813.31;1985763;72;20561;-61
2021/10/04 02:30:44;;;;;;;;;;;;;;;8.67;84.35;101815.98;1985830;72;20141;-61
2021/10/04 02:33:12;;;;;;;;;;;;;;;8.66;84.51;101822.97;1985746;72;20110;-61
2021/10/04 02:35:40;;;;;;;;;;;;;;;8.65;84.50;101816.42;1985886;72;20150;-61
2021/10/04 02:38:08;;;;;;;;;;;;;;;8.64;85.02;101818.19;1986029;72;20146;-61
2021/10/04 02:40:36;;;;;;;;;;;;;;;8.61;84.77;101822.19;1985964;72;20148;-61
2021/10/04 02:43:04;;;;;;;;;;;;;;;8.61;84.66;101818.67;1986009;72;20138;-61
2021/10/04 02:45:32;;;;;;;;;;;;;;;8.58;84.78;101816.11;1985974;72;20114;-61
2021/10/04 02:48:00;;;;;;;;;;;;;;;8.56;84.69;101821.80;1985952;72;20207;-61
2021/10/04 02:50:29;;;;;;;;;;;;;;;8.56;84.95;101820.48;1985993;72;20114;-61
2021/10/04 02:52:57;;;;;;;;;;;;;;;8.52;85.00;101824.94;1985940;72;20517;-61
2021/10/04 02:55:24;;;;;;;;;;;;;;;8.49;84.74;101832.39;1986016;72;20110;-61
2021/10/04 02:57:52;;;;;;;;;;;;;;;8.48;84.79;101826.73;1985998;72;20114;-61
2021/10/04 03:00:20;;;;;;;;;;;;;;;8.48;85.39;101823.22;1985876;72;20136;-61
2021/10/04 03:02:48;;;;;;;;;;;;;;;8.46;85.26;101828.48;1985982;72;20110;-61
2021/10/04 03:05:16;;;;;;;;;;;;;;;8.44;85.34;101825.01;1986016;72;20106;-61
2021/10/04 03:07:44;;;;;;;;;;;;;;;8.42;85.41;101826.79;1985992;72;20106;-61
2021/10/04 03:10:12;;;;;;;;;;;;;;;8.41;85.43;101825.04;1985982;72;20110;-61
2021/10/04 03:12:39;;;;;;;;;;;;;;;8.41;85.64;101827.66;1985968;72;20150;-61
2021/10/04 03:15:08;;;;;;;;;;;;;;;8.40;85.93;101827.22;1986003;72;20184;-61
2021/10/04 03:17:35;;;;;;;;;;;;;;;8.39;85.79;101827.23;1986033;72;20525;-61
2021/10/04 03:20:04;;;;;;;;;;;;;;;8.36;85.94;101830.78;1985949;72;20132;-60
2021/10/04 03:22:32;;;;;;;;;;;;;;;8.35;85.95;101830.34;1985968;72;20114;-61
2021/10/04 03:24:59;;;;;;;;;;;;;;;8.33;85.68;101832.12;1985979;72;20161;-61
2021/10/04 03:27:27;;;;;;;;;;;;;;;8.31;85.58;101832.13;1985857;72;20142;-60
2021/10/04 03:29:55;;;;;;;;;;;;;;;8.30;85.72;101833.49;1977663;72;20115;-61
2021/10/04 03:32:23;;;;;;;;;;;;;;;8.29;85.88;101834.36;1975749;73;20107;-60
2021/10/04 03:34:51;;;;;;;;;;;;;;;8.26;85.69;101834.39;1975787;73;20144;-61
2021/10/04 03:37:19;;;;;;;;;;;;;;;8.25;85.60;101840.55;1975813;73;20111;-62
2021/10/04 03:39:46;;;;;;;;;;;;;;;8.24;85.75;101837.48;1975681;72;20118;-62
2021/10/04 03:42:14;;;;;;;;;;;;;;;8.22;85.61;101850.61;1975759;73;20212;-62
2021/10/04 03:44:42;;;;;;;;;;;;;;;8.22;85.52;101857.63;1975777;73;20152;-61
2021/10/04 03:47:10;;;;;;;;;;;;;;;8.20;85.57;101854.15;1975813;73;20154;-60
2021/10/04 03:49:38;;;;;;;;;;;;;;;8.17;85.56;101855.48;1975752;73;20103;-60
2021/10/04 03:52:06;;;;;;;;;;;;;;;8.16;85.35;101858.56;1975769;73;20145;-60
2021/10/04 03:54:33;;;;;;;;;;;;;;;8.17;85.49;101862.05;1975703;73;20103;-61
2021/10/04 03:57:01;;;;;;;;;;;;;;;8.15;85.51;101861.20;1975781;73;20141;-61
2021/10/04 03:59:29;;;;;;;;;;;;;;;8.12;85.63;101862.97;1975795;73;20106;-61
2021/10/04 04:01:57;;;;;;;;;;;;;;;8.10;85.41;101864.74;1975692;73;20103;-61
2021/10/04 04:04:25;;;;;;;;;;;;;;;8.08;85.34;101863.90;1975782;73;20141;-61
2021/10/04 04:06:53;;;;;;;;;;;;;;;8.06;85.40;101865.67;1975714;73;20094;-61
2021/10/04 04:09:21;;;;;;;;;;;;;;;8.05;85.34;101871.78;1975784;73;20193;-61
2021/10/04 04:11:50;;;;;;;;;;;;;;;8.04;85.19;101868.75;1975757;73;20094;-61
2021/10/04 04:14:19;;;;;;;;;;;;;;;8.03;85.20;101865.69;1975806;73;20110;-61
2021/10/04 04:16:47;;;;;;;;;;;;;;;8.03;85.16;101878.80;1975890;73;20360;-61
2021/10/04 04:19:15;;;;;;;;;;;;;;;8.04;85.17;101880.98;1975758;73;20106;-61
2021/10/04 04:21:43;;;;;;;;;;;;;;;8.02;85.03;101879.71;1975603;73;20247;-61
2021/10/04 04:24:11;;;;;;;;;;;;;;;8.03;85.38;101886.67;1975800;72;20422;-62
2021/10/04 04:26:39;;;;;;;;;;;;;;;8.00;85.13;101886.70;1975803;73;20106;-61
2021/10/04 04:29:06;;;;;;;;;;;;;;;7.99;85.09;101887.59;1978230;72;20110;-62
2021/10/04 04:31:34;;;;;;;;;;;;;;;7.99;85.01;101887.59;1985945;72;20108;-61
2021/10/04 04:34:02;;;;;;;;;;;;;;;7.99;85.04;101888.91;1985866;72;20110;-62
2021/10/04 04:36:30;;;;;;;;;;;;;;;7.99;84.93;101890.67;1985984;72;20102;-61
2021/10/04 04:38:58;;;;;;;;;;;;;;;7.98;84.98;101888.47;1985979;72;20140;-61
2021/10/04 04:41:25;;;;;;;;;;;;;;;7.98;85.05;101893.72;1985932;72;20114;-61
2021/10/04 04:43:53;;;;;;;;;;;;;;;7.98;84.86;101888.47;1985935;72;20144;-61
2021/10/04 04:46:21;;;;;;;;;;;;;;;7.98;85.18;101888.47;1985956;72;20132;-62
2021/10/04 04:48:49;;;;;;;;;;;;;;;7.95;85.04;101887.21;1985886;72;20184;-61
2021/10/04 04:51:17;;;;;;;;;;;;;;;7.95;84.93;101888.94;1985937;72;20145;-62
2021/10/04 04:53:45;;;;;;;;;;;;;;;7.94;84.87;101893.33;1985972;72;20106;-62
2021/10/04 04:56:15;;;;;;;;;;;;;;;7.92;84.74;101893.78;1986067;72;20114;-61
2021/10/04 04:58:43;;;;;;;;;;;;;;;7.92;84.68;101889.85;1985935;72;20162;-62
2021/10/04 05:01:10;;;;;;;;;;;;;;;7.91;84.63;101892.03;1985819;72;20402;-62
2021/10/04 05:03:38;;;;;;;;;;;;;;;7.93;84.63;101898.16;1985936;72;20160;-62
2021/10/04 05:06:06;;;;;;;;;;;;;;;7.94;84.57;101889.39;1985937;72;20144;-61
2021/10/04 05:08:34;;;;;;;;;;;;;;;7.97;84.47;101895.92;1985944;72;20098;-62
2021/10/04 05:11:02;;;;;;;;;;;;;;;7.99;84.64;101895.47;1985997;72;20114;-62
2021/10/04 05:13:29;;;;;;;;;;;;;;;7.99;84.48;101895.92;1985951;72;20111;-61
2021/10/04 05:15:57;;;;;;;;;;;;;;;8.01;84.42;101898.94;1985892;72;20144;-62
2021/10/04 05:18:25;;;;;;;;;;;;;;;8.03;84.43;101901.55;1985933;72;20113;-61
2021/10/04 05:20:53;;;;;;;;;;;;;;;8.04;84.43;101901.55;1985911;72;20145;-61
2021/10/04 05:23:21;;;;;;;;;;;;;;;8.06;84.34;101904.13;1985911;72;20114;-61
2021/10/04 05:28:38;;;;;;;;;;;;;;;8.10;84.28;101902.78;1935335;74;20369;-62
2021/10/04 05:31:06;;;;;;;;;;;;;;;8.12;84.25;101893.59;1935255;74;20156;-61
2021/10/04 05:33:33;;;;;;;;;;;;;;;8.14;84.10;101904.08;1935116;74;20106;-61
2021/10/04 05:36:01;;;;;;;;;;;;;;;8.16;84.07;101893.98;1935121;74;20154;-61
2021/10/04 05:38:29;;;;;;;;;;;;;;;8.20;84.00;101898.75;1935133;74;20102;-61
2021/10/04 05:40:57;;;;;;;;;;;;;;;8.23;83.85;101896.97;1935012;74;20192;-61
2021/10/04 05:43:25;;;;;;;;;;;;;;;8.28;83.76;101894.28;1935074;74;20114;-61
2021/10/04 05:45:53;;;;;;;;;;;;;;;8.33;83.77;101902.97;1935117;74;20423;-61
2021/10/04 05:48:20;;;;;;;;;;;;;;;8.37;83.57;101907.30;1935217;74;20296;-62
2021/10/04 05:50:49;;;;;;;;;;;;;;;8.41;83.46;101910.34;1935115;74;20115;-61
2021/10/04 05:53:17;;;;;;;;;;;;;;;8.49;83.47;101907.20;1935064;74;20137;-61
2021/10/04 05:55:46;;;;;;;;;;;;;;;8.58;83.41;101910.63;1935100;74;20102;-62
2021/10/04 05:58:15;;;;;;;;;;;;;;;8.63;83.26;101912.72;1935072;74;20122;-61
2021/10/04 06:00:44;;;;;;;;;;;;;;;8.73;83.21;101908.25;1935171;74;20380;-61
2021/10/04 06:03:12;;;;;;;;;;;;;;;8.75;82.60;101909.95;1934081;74;20118;-61
2021/10/04 06:05:40;;;;;;;;;;;;;;;8.72;81.99;101915.69;1935093;74;20110;-61
2021/10/04 06:08:08;;;;;;;;;;;;;;;8.69;81.75;101911.36;1935057;74;20181;-61
2021/10/04 06:10:35;;;;;;;;;;;;;;;8.66;81.68;101916.18;1935203;74;20148;-61
2021/10/04 06:13:05;;;;;;;;;;;;;;;8.62;81.33;101918.88;1960553;72;20128;-61
2021/10/04 06:15:32;;;;;;;;;;;;;;;8.57;81.03;101916.29;1965176;73;20096;-61
2021/10/04 06:18:00;;;;;;;;;;;;;;;8.53;81.09;101918.53;1965196;73;20116;-61
2021/10/04 06:20:28;;;;;;;;;;;;;;;8.52;81.32;101919.86;1965304;73;20099;-61
2021/10/04 06:22:57;;;;;;;;;;;;;;;8.52;81.46;101918.55;1965274;73;20138;-61
2021/10/04 06:25:25;;;;;;;;;;;;;;;8.52;81.54;101921.17;1965187;73;20108;-61
2021/10/04 06:27:55;;;;;;;;;;;;;;;8.53;81.59;101921.16;1965194;73;20408;-61
2021/10/04 06:30:22;;;;;;;;;;;;;;;8.54;81.60;101920.70;1965156;73;20115;-61
2021/10/04 06:32:50;;;;;;;;;;;;;;;8.56;81.65;101914.99;1965066;73;20157;-62
2021/10/04 06:35:18;;;;;;;;;;;;;;;8.56;81.20;101918.51;1965133;73;20124;-61
2021/10/04 06:37:46;;;;;;;;;;;;;;;8.59;81.18;101914.97;1965193;73;20092;-61
2021/10/04 06:40:16;;;;;;;;;;;;;;;8.63;81.29;101919.28;1965327;73;20112;-62
2021/10/04 06:42:45;;;;;;;;;;;;;;;8.66;81.04;101916.63;1965289;73;20108;-61
2021/10/04 06:45:13;;;;;;;;;;;;;;;8.70;81.15;101913.08;1965169;72;20112;-61
2021/10/04 06:47:41;;;;;;;;;;;;;;;8.77;81.25;101914.73;1965104;72;20214;-61
2021/10/04 06:50:11;;;;;;;;;;;;;;;8.83;81.21;101914.65;1965148;73;20208;-61
2021/10/04 06:52:58;;;;;;;;;;;;;;;8.86;80.98;101910.68;1935215;74;20413;-59
2021/10/04 06:55:26;;;;;;;;;;;;;;;8.95;81.02;101907.52;1935088;74;20110;-59
2021/10/04 06:57:53;;;;;;;;;;;;;;;8.96;80.11;101907.93;1935028;74;20148;-59
2021/10/04 07:00:21;;;;;;;;;;;;;;;8.99;80.15;101907.90;1935093;74;20141;-59
2021/10/04 07:02:53;;;;;;;;;;;;;;;9.07;80.28;101912.59;1935057;74;20217;-59
2021/10/04 07:05:21;;;;;;;;;;;;;;;9.15;80.20;101912.05;1935107;74;20348;-61
2021/10/04 07:07:51;;;;;;;;;;;;;;;9.24;80.19;101914.97;1935097;74;20137;-61
2021/10/04 07:10:19;;;;;;;;;;;;;;;9.33;79.74;101908.71;1935088;74;20114;-62
2021/10/04 07:12:47;;;;;;;;;;;;;;;9.37;79.48;101903.41;1935075;74;20466;-61
2021/10/04 07:15:15;;;;;;;;;;;;;;;9.43;79.42;101905.06;1935121;74;20102;-62
2021/10/04 07:17:42;;;;;;;;;;;;;;;9.44;78.87;101907.67;1935040;74;20114;-61
2021/10/04 07:20:11;;;;;;;;;;;;;;;9.44;78.51;101910.73;1935168;74;20114;-62
2021/10/04 07:22:40;;;;;;;;;;;;;;;9.46;78.63;101915.52;1935009;74;20114;-62
2021/10/04 07:25:11;;;;;;;;;;;;;;;9.50;78.89;101911.08;1934975;74;20391;-61
2021/10/04 07:27:39;;;;;;;;;;;;;;;9.56;78.93;101908.37;1935074;74;20130;-61
2021/10/04 07:30:07;;;;;;;;;;;;;;;9.66;78.84;101916.09;1935050;74;20118;-61
2021/10/04 07:32:35;;;;;;;;;;;;;;;9.73;78.66;101915.98;1935119;74;20144;-61
2021/10/04 07:35:03;;;;;;;;;;;;;;;9.79;78.07;101918.49;1935086;74;20110;-61
2021/10/04 07:37:33;;;;;;;;;;;;;;;9.85;78.47;101919.73;1935002;74;20144;-63
2021/10/04 07:40:22;;;;;;;;;;;;;;;9.87;78.09;101921.87;1935130;74;20150;-61
2021/10/04 07:42:50;;;;;;;;;;;;;;;9.91;78.32;101923.55;1935193;74;20148;-61
2021/10/04 07:45:19;;;;;;;;;;;;;;;9.94;77.98;101927.45;1935180;74;20140;-61
2021/10/04 07:47:47;;;;;;;;;;;;;;;9.92;77.09;101922.64;1935164;74;20349;-62
2021/10/04 07:50:15;;;;;;;;;;;;;;;9.91;77.60;101920.92;1935057;74;20177;-61
2021/10/04 07:52:46;;;;;;;;;;;;;;;9.92;77.58;101920.02;1935295;74;20118;-61
2021/10/04 07:55:14;;;;;;;;;;;;;;;9.92;77.59;101916.06;1935235;74;20204;-61
2021/10/04 07:57:48;;;;;;;;;;;;;;;9.90;77.38;101909.97;1935162;74;20110;-61
2021/10/04 08:00:12;;;;;;;;;;;;;;;9.91;77.41;101914.80;1934102;74;20113;-61
2021/10/04 08:02:40;;;;;;;;;;;;;;;9.92;77.72;101920.02;1935060;74;20117;-61
2021/10/04 08:05:08;;;;;;;;;;;;;;;9.93;77.57;101919.13;1935202;74;20144;-62
2021/10/04 08:07:36;;;;;;;;;;;;;;;9.94;77.67;101918.25;1935193;74;20106;-61
2021/10/04 08:10:05;;;;;;;;;;;;;;;9.91;77.28;101918.30;1935180;74;20191;-61
2021/10/04 08:12:33;;;;;;;;;;;;;;;9.88;77.50;101916.16;1935160;74;20376;-61
2021/10/04 08:15:01;;;;;;;;;;;;;;;9.85;77.76;101932.42;1935237;74;20101;-61
2021/10/04 08:17:29;;;;;;;;;;;;;;;9.84;77.84;101927.18;1935149;74;20144;-61
2021/10/04 08:19:58;;;;;;;;;;;;;;;9.81;77.96;101928.11;1935164;74;20148;-61
2021/10/04 08:22:45;;;;;;;;;;;;;;;9.78;78.17;101932.10;1976406;72;20186;-61
2021/10/04 08:25:13;;;;;;;;;;;;;;;9.78;78.40;101932.56;1976598;73;20397;-61
2021/10/04 08:27:41;;;;;;;;;;;;;;;9.77;78.91;101933.44;1976320;73;20146;-61
2021/10/04 08:30:10;;;;;;;;;;;;;;;9.71;78.95;101936.18;1976446;72;20146;-61
2021/10/04 08:32:38;;;;;;;;;;;;;;;9.66;78.94;101933.19;1976374;73;20393;-61
2021/10/04 08:35:06;;;;;;;;;;;;;;;9.71;79.24;101937.49;1976428;73;20104;-61
2021/10/04 08:37:34;;;;;;;;;;;;;;;9.72;79.69;101941.84;1976417;73;20119;-61
2021/10/04 08:40:03;;;;;;;;;;;;;;;9.71;79.71;101939.67;1976386;73;20153;-61
2021/10/04 08:42:32;;;;;;;;;;;;;;;9.71;79.64;101934.86;1976415;73;20107;-61
2021/10/04 08:44:59;;;;;;;;;;;;;;;9.68;79.62;101930.50;1976437;73;20162;-61
2021/10/04 08:47:27;;;;;;;;;;;;;;;9.69;79.71;101932.70;1976466;72;20111;-61
2021/10/04 08:49:55;;;;;;;;;;;;;;;9.69;79.79;101934.02;1976455;73;20115;-61
2021/10/04 08:52:23;;;;;;;;;;;;;;;9.70;80.15;101933.11;1976424;73;20117;-61
2021/10/04 08:54:50;;;;;;;;;;;;;;;9.66;80.39;101933.61;1976381;73;20224;-61
2021/10/04 08:57:18;;;;;;;;;;;;;;;9.64;80.54;101929.68;1976418;73;20110;-61
2021/10/04 08:59:46;;;;;;;;;;;;;;;9.63;80.77;101930.59;1976429;73;20123;-61
2021/10/04 09:02:21;;;;;;;;;;;;;;;9.62;80.78;101932.78;1976389;73;20091;-61
2021/10/04 09:05:08;;;;;;;;;;;;;;;9.63;80.86;101927.96;1976426;73;20151;-61
2021/10/04 09:07:46;;;;;;;;;;;;;;;9.68;81.08;101932.27;1976406;73;20137;-61
2021/10/04 09:10:15;;;;;;;;;;;;;;;9.66;81.20;101930.98;1976416;73;20389;-61
2021/10/04 09:12:50;;;;;;;;;;;;;;;9.66;81.43;101927.92;1976368;73;20170;-61
2021/10/04 09:15:19;;;;;;;;;;;;;;;9.64;81.62;101917.84;1975225;73;20110;-61
2021/10/04 09:17:49;;;;;;;;;;;;;;;9.62;81.91;101926.21;1976326;73;20182;-61
2021/10/04 09:20:18;;;;;;;;;;;;;;;9.63;81.90;101924.47;1976463;73;20413;-61
2021/10/04 09:22:46;;;;;;;;;;;;;;;9.64;81.99;101926.19;1976316;73;20112;-61
2021/10/04 09:25:14;;;;;;;;;;;;;;;9.65;82.08;101917.42;1976423;73;20107;-61
2021/10/04 09:27:44;;;;;;;;;;;;;;;9.69;82.26;101916.92;1976373;73;20108;-61
2021/10/04 09:30:16;;;;;;;;;;;;;;;9.71;82.10;101919.08;1976287;72;20515;-61
2021/10/04 09:32:45;;;;;;;;;;;;;;;9.76;82.04;101914.63;1976391;73;20401;-61
2021/10/04 09:35:14;;;;;;;;;;;;;;;9.78;82.22;101920.72;1976399;73;20107;-61
2021/10/04 09:37:42;;;;;;;;;;;;;;;9.81;82.00;101921.96;1976529;72;20902;-61
2021/10/04 09:40:27;;;;;;;;;;;;;;;9.85;81.96;101914.47;1976617;73;20103;-61
2021/10/04 09:42:55;;;;;;;;;;;;;;;9.92;82.02;101919.16;1976412;72;20166;-62
2021/10/04 09:45:23;;;;;;;;;;;;;;;9.94;82.01;101912.98;1976505;73;20147;-61
2021/10/04 09:47:52;;;;;;;;;;;;;;;9.94;81.98;101912.98;1976607;72;20116;-61
2021/10/04 09:50:27;;;;;;;;;;;;;;;9.95;81.88;101916.02;1976499;73;20415;-61
2021/10/04 09:52:56;;;;;;;;;;;;;;;9.94;81.86;101910.36;1976484;73;20141;-62
2021/10/04 09:55:25;;;;;;;;;;;;;;;9.95;81.86;101904.64;1976491;73;20161;-61
2021/10/04 09:58:16;;;;;;;;;;;;;;;9.91;82.00;101907.77;1976531;73;20107;-61
2021/10/04 10:00:45;;;;;;;;;;;;;;;9.90;82.28;101915.69;1976504;73;20103;-61
2021/10/04 10:03:14;;;;;;;;;;;;;;;9.87;82.44;101906.09;1976502;73;20111;-61
2021/10/04 10:05:43;;;;;;;;;;;;;;;9.86;82.24;101911.78;1976416;73;20471;-61
2021/10/04 10:08:11;;;;;;;;;;;;;;;9.85;82.48;101907.89;1976617;72;20149;-62
2021/10/04 10:10:40;;;;;;;;;;;;;;;9.82;82.50;101907.93;1976496;72;20205;-62
2021/10/04 10:13:09;;;;;;;;;;;;;;;9.82;82.69;101911.87;1976537;73;20365;-61
2021/10/04 10:15:37;;;;;;;;;;;;;;;9.83;82.92;101909.65;1976482;73;20411;-61
2021/10/04 10:18:22;;;;;;;;;;;;;;;9.79;82.86;101913.23;1976504;73;20378;-62
2021/10/04 10:21:01;;;;;;;;;;;;;;;9.74;83.08;101912.01;1976147;73;20154;-61
2021/10/04 10:23:45;;;;;;;;;;;;;;;9.72;83.31;101911.59;1970417;72;20116;-60
2021/10/04 10:26:14;;;;;;;;;;;;;;;9.66;83.45;101915.20;1969717;73;20099;-61
2021/10/04 10:28:42;;;;;;;;;;;;;;;9.62;83.80;101910.44;1959232;73;20119;-60
2021/10/04 10:31:10;;;;;;;;;;;;;;;9.58;83.60;101912.70;1969762;73;20130;-60
2021/10/04 10:33:48;;;;;;;;;;;;;;;9.57;83.73;101910.98;1969871;73;20119;-61
2021/10/04 10:36:17;;;;;;;;;;;;;;;9.55;83.77;101913.19;1969783;73;20143;-60
2021/10/04 10:39:03;;;;;;;;;;;;;;;9.55;84.12;101907.48;1969665;73;20190;-61
2021/10/04 10:41:31;;;;;;;;;;;;;;;9.56;84.03;101905.28;1969732;73;20155;-61
2021/10/04 10:44:03;;;;;;;;;;;;;;;9.55;84.43;101900.91;1969862;73;20107;-61
2021/10/04 10:49:49;;;;;;;;;;;;;;;9.46;85.30;101904.57;1928120;74;20467;-60
2021/10/04 10:52:21;;;;;;;;;;;;;;;9.43;85.21;101904.61;1928343;74;20368;-60
2021/10/04 10:54:52;;;;;;;;;;;;;;;9.41;85.01;101897.20;1928086;73;20118;-60
2021/10/04 10:57:19;;;;;;;;;;;;;;;9.40;85.39;101903.33;1928169;74;20102;-60
2021/10/04 10:59:47;;;;;;;;;;;;;;;9.37;85.26;101902.09;1928024;74;20130;-60
2021/10/04 11:02:33;;;;;;;;;;;;;;;9.35;85.66;101903.88;1928107;74;20188;-60
2021/10/04 11:05:00;;;;;;;;;;;;;;;9.32;85.45;101901.73;1928054;74;20148;-60
2021/10/04 11:07:46;;;;;;;;;;;;;;;9.28;85.87;101903.09;1928107;74;20114;-60
2021/10/04 11:10:14;;;;;;;;;;;;;;;9.29;86.22;101906.58;1928033;74;20118;-60
2021/10/04 11:12:49;;;;;;;;;;;;;;;9.28;86.24;101907.48;1928133;74;20140;-60
2021/10/04 11:15:19;;;;;;;;;;;;;;;9.25;86.36;101908.83;1911799;74;20118;-60
2021/10/04 11:17:55;;;;;;;;;;;;;;;9.24;86.39;101904.03;1929415;73;20131;-60
2021/10/04 11:20:24;;;;;;;;;;;;;;;9.25;86.22;101903.58;1928093;74;20114;-60
2021/10/04 11:22:53;;;;;;;;;;;;;;;9.26;86.28;101907.50;1928005;73;20098;-60
2021/10/04 11:25:20;;;;;;;;;;;;;;;9.25;86.31;101903.12;1929362;73;20157;-61
2021/10/04 11:27:49;;;;;;;;;;;;;;;9.27;86.74;101909.67;1928099;74;20110;-60
2021/10/04 11:30:17;;;;;;;;;;;;;;;9.25;86.89;101911.00;1928067;74;20114;-60
2021/10/04 11:33:03;;;;;;;;;;;;;;;9.24;86.87;101910.60;1928095;74;20173;-60
2021/10/04 11:35:31;;;;;;;;;;;;;;;9.23;86.91;101907.98;1928239;73;20118;-60
2021/10/04 11:38:00;;;;;;;;;;;;;;;9.23;86.97;101912.80;1928093;74;20116;-60
2021/10/04 11:40:28;;;;;;;;;;;;;;;9.23;86.95;101907.98;1928708;73;20118;-60
2021/10/04 11:42:57;;;;;;;;;;;;;;;9.21;86.82;101908.01;1928044;74;20105;-60
2021/10/04 11:45:27;;;;;;;;;;;;;;;9.22;86.83;101905.81;1928466;73;20161;-60
2021/10/04 11:47:55;;;;;;;;;;;;;;;9.22;87.09;101903.19;1934090;72;20353;-60
2021/10/04 11:50:24;;;;;;;;;;;;;;;9.23;87.02;101903.59;1963448;73;20146;-60
2021/10/04 11:52:53;;;;;;;;;;;;;;;9.23;86.76;101906.22;1963481;73;20116;-60
2021/10/04 11:55:21;;;;;;;;;;;;;;;9.23;86.54;101911.94;1963474;72;20150;-60
2021/10/04 11:57:49;;;;;;;;;;;;;;;9.23;86.49;101912.80;1963437;73;20146;-60
2021/10/04 12:00:17;;;;;;;;;;;;;;;9.22;86.78;101912.39;1963371;72;20112;-60
2021/10/04 12:02:48;;;;;;;;;;;;;;;9.20;86.77;101910.23;1963473;72;20171;-61
2021/10/04 12:05:18;;;;;;;;;;;;;;;9.18;87.02;101911.98;1963519;73;20108;-60
2021/10/04 12:08:00;;;;;;;;;;;;;;;9.14;86.89;101918.18;1963449;73;20146;-60
2021/10/04 12:10:46;;;;;;;;;;;;;;;9.12;87.27;101925.22;1963435;73;20150;-60
2021/10/04 12:13:15;;;;;;;;;;;;;;;9.10;87.40;101919.13;1963484;73;20116;-60
2021/10/04 12:15:43;;;;;;;;;;;;;;;9.09;87.25;101921.31;1963097;73;20100;-60
2021/10/04 12:18:15;;;;;;;;;;;;;;;9.09;87.20;101918.69;1963449;73;20104;-61
2021/10/04 12:20:44;;;;;;;;;;;;;;;9.10;87.28;101920.89;1962088;73;20100;-61
2021/10/04 12:23:16;;;;;;;;;;;;;;;9.09;87.13;101921.31;1963350;72;20100;-61
2021/10/04 12:25:44;;;;;;;;;;;;;;;9.07;87.36;101917.84;1963472;73;20115;-61
2021/10/04 12:28:16;;;;;;;;;;;;;;;9.06;87.38;101925.31;1963481;73;20104;-61
2021/10/04 12:30:42;;;;;;;;;;;;;;;9.04;87.27;101925.79;1963130;73;20116;-61
2021/10/04 12:33:10;;;;;;;;;;;;;;;9.03;87.26;101927.98;1963492;73;20378;-61
2021/10/04 12:35:38;;;;;;;;;;;;;;;9.03;87.42;101927.98;1963381;72;20128;-61
2021/10/04 12:38:11;;;;;;;;;;;;;;;9.00;87.44;101931.95;1963462;73;20510;-61
2021/10/04 12:40:46;;;;;;;;;;;;;;;9.00;87.25;101929.32;1963423;73;20528;-61
2021/10/04 12:43:15;;;;;;;;;;;;;;;9.01;87.10;101931.08;1963429;73;20175;-61
2021/10/04 12:45:53;;;;;;;;;;;;;;;9.01;87.11;101933.70;1963584;73;20374;-61
2021/10/04 12:48:21;;;;;;;;;;;;;;;9.02;87.08;101934.14;1963285;73;20108;-61
2021/10/04 12:50:50;;;;;;;;;;;;;;;9.01;87.23;101936.33;1963414;72;20112;-62
2021/10/04 12:53:24;;;;;;;;;;;;;;;9.03;87.13;101942.42;1963439;73;20140;-61
2021/10/04 12:55:59;;;;;;;;;;;;;;;9.02;87.26;101940.70;1963445;73;20179;-61
2021/10/04 12:58:29;;;;;;;;;;;;;;;9.00;87.33;101933.26;1963403;73;20112;-62
2021/10/04 13:00:58;;;;;;;;;;;;;;;9.00;87.31;101938.09;1963413;73;20112;-61
2021/10/04 13:03:25;;;;;;;;;;;;;;;9.00;87.21;101935.89;1961134;72;20193;-61